sensor_id;sensor_type;location;lat;lon;timestamp;temperature;humidity
67054;SHT31;53960;51.826;5.850;2022-08-01T00:00:07;19.83;91.33
67054;SHT31;53960;51.826;5.850;2022-08-01T00:02:33;19.83;91.28
67054;SHT31;53960;51.826;5.850;2022-08-01T00:04:58;19.79;91.18
67054;SHT31;53960;51.826;5.850;2022-08-01T00:07:25;19.75;91.61
67054;SHT31;53960;51.826;5.850;2022-08-01T00:09:51;19.71;91.35
67054;SHT31;53960;51.826;5.850;2022-08-01T00:12:16;19.58;91.96
67054;SHT31;53960;51.826;5.850;2022-08-01T00:14:42;19.62;91.73
67054;SHT31;53960;51.826;5.850;2022-08-01T00:17:07;19.62;91.47
67054;SHT31;53960;51.826;5.850;2022-08-01T00:19:32;19.62;91.34
67054;SHT31;53960;51.826;5.850;2022-08-01T00:21:58;19.54;90.80
67054;SHT31;53960;51.826;5.850;2022-08-01T00:24:23;19.61;91.00
67054;SHT31;53960;51.826;5.850;2022-08-01T00:26:48;19.49;91.06
67054;SHT31;53960;51.826;5.850;2022-08-01T00:29:14;19.52;91.13
67054;SHT31;53960;51.826;5.850;2022-08-01T00:31:39;19.52;91.03
67054;SHT31;53960;51.826;5.850;2022-08-01T00:34:04;19.48;91.38
67054;SHT31;53960;51.826;5.850;2022-08-01T00:36:30;19.52;91.10
67054;SHT31;53960;51.826;5.850;2022-08-01T00:38:55;19.49;90.93
67054;SHT31;53960;51.826;5.850;2022-08-01T00:41:20;19.42;91.29
67054;SHT31;53960;51.826;5.850;2022-08-01T00:43:45;19.38;91.06
67054;SHT31;53960;51.826;5.850;2022-08-01T00:46:11;19.42;91.01
67054;SHT31;53960;51.826;5.850;2022-08-01T00:48:36;19.42;90.80
67054;SHT31;53960;51.826;5.850;2022-08-01T00:51:03;19.41;90.80
67054;SHT31;53960;51.826;5.850;2022-08-01T00:53:29;19.32;91.09
67054;SHT31;53960;51.826;5.850;2022-08-01T00:55:56;19.30;91.19
67054;SHT31;53960;51.826;5.850;2022-08-01T00:58:22;19.25;90.87
67054;SHT31;53960;51.826;5.850;2022-08-01T01:00:48;19.30;91.18
67054;SHT31;53960;51.826;5.850;2022-08-01T01:03:13;19.31;91.12
67054;SHT31;53960;51.826;5.850;2022-08-01T01:05:56;19.35;91.06
67054;SHT31;53960;51.826;5.850;2022-08-01T01:08:32;19.36;91.31
67054;SHT31;53960;51.826;5.850;2022-08-01T01:11:26;19.28;91.58
67054;SHT31;53960;51.826;5.850;2022-08-01T01:14:00;19.28;91.84
67054;SHT31;53960;51.826;5.850;2022-08-01T01:16:26;19.22;91.60
67054;SHT31;53960;51.826;5.850;2022-08-01T01:18:57;19.21;91.53
67054;SHT31;53960;51.826;5.850;2022-08-01T01:21:47;19.27;91.62
67054;SHT31;53960;51.826;5.850;2022-08-01T01:24:21;19.31;90.89
67054;SHT31;53960;51.826;5.850;2022-08-01T01:27:18;19.27;91.24
67054;SHT31;53960;51.826;5.850;2022-08-01T01:29:48;19.24;91.06
67054;SHT31;53960;51.826;5.850;2022-08-01T01:32:23;19.21;91.28
67054;SHT31;53960;51.826;5.850;2022-08-01T01:34:54;19.20;91.16
67054;SHT31;53960;51.826;5.850;2022-08-01T01:37:22;19.14;91.49
67054;SHT31;53960;51.826;5.850;2022-08-01T01:39:49;19.14;91.79
67054;SHT31;53960;51.826;5.850;2022-08-01T01:42:17;19.14;91.42
67054;SHT31;53960;51.826;5.850;2022-08-01T01:44:43;19.14;91.52
67054;SHT31;53960;51.826;5.850;2022-08-01T01:47:12;19.12;91.68
67054;SHT31;53960;51.826;5.850;2022-08-01T01:49:39;19.07;91.69
67054;SHT31;53960;51.826;5.850;2022-08-01T01:52:06;19.06;92.19
67054;SHT31;53960;51.826;5.850;2022-08-01T01:54:36;19.06;92.10
67054;SHT31;53960;51.826;5.850;2022-08-01T01:57:03;19.10;92.06
67054;SHT31;53960;51.826;5.850;2022-08-01T01:59:32;19.10;91.81
67054;SHT31;53960;51.826;5.850;2022-08-01T02:02:00;19.12;92.00
67054;SHT31;53960;51.826;5.850;2022-08-01T02:04:27;19.12;91.91
67054;SHT31;53960;51.826;5.850;2022-08-01T02:06:54;19.08;92.01
67054;SHT31;53960;51.826;5.850;2022-08-01T02:09:21;19.11;91.79
67054;SHT31;53960;51.826;5.850;2022-08-01T02:11:48;19.12;91.98
67054;SHT31;53960;51.826;5.850;2022-08-01T02:14:15;19.11;91.97
67054;SHT31;53960;51.826;5.850;2022-08-01T02:16:47;19.08;91.91
67054;SHT31;53960;51.826;5.850;2022-08-01T02:19:14;19.07;92.00
67054;SHT31;53960;51.826;5.850;2022-08-01T02:22:04;19.04;91.88
67054;SHT31;53960;51.826;5.850;2022-08-01T02:27:20;19.08;91.94
67054;SHT31;53960;51.826;5.850;2022-08-01T02:30:00;19.08;91.87
67054;SHT31;53960;51.826;5.850;2022-08-01T02:32:43;19.15;91.61
67054;SHT31;53960;51.826;5.850;2022-08-01T02:35:12;19.12;91.57
67054;SHT31;53960;51.826;5.850;2022-08-01T02:37:38;19.06;91.78
67054;SHT31;53960;51.826;5.850;2022-08-01T02:40:05;19.06;91.75
67054;SHT31;53960;51.826;5.850;2022-08-01T02:42:34;19.03;91.74
67054;SHT31;53960;51.826;5.850;2022-08-01T02:45:02;19.04;91.99
67054;SHT31;53960;51.826;5.850;2022-08-01T02:47:28;19.03;91.73
67054;SHT31;53960;51.826;5.850;2022-08-01T02:49:55;18.96;91.84
67054;SHT31;53960;51.826;5.850;2022-08-01T02:52:23;18.91;92.06
67054;SHT31;53960;51.826;5.850;2022-08-01T02:54:51;18.87;92.18
67054;SHT31;53960;51.826;5.850;2022-08-01T02:57:20;18.87;92.34
67054;SHT31;53960;51.826;5.850;2022-08-01T02:59:47;18.89;92.10
67054;SHT31;53960;51.826;5.850;2022-08-01T03:02:14;18.83;92.34
67054;SHT31;53960;51.826;5.850;2022-08-01T03:04:42;18.82;92.31
67054;SHT31;53960;51.826;5.850;2022-08-01T03:07:10;18.83;92.34
67054;SHT31;53960;51.826;5.850;2022-08-01T03:09:39;18.87;92.36
67054;SHT31;53960;51.826;5.850;2022-08-01T03:12:10;18.91;92.11
67054;SHT31;53960;51.826;5.850;2022-08-01T03:14:38;18.84;92.34
67054;SHT31;53960;51.826;5.850;2022-08-01T03:17:05;18.87;92.10
67054;SHT31;53960;51.826;5.850;2022-08-01T03:19:31;18.82;92.26
67054;SHT31;53960;51.826;5.850;2022-08-01T03:21:59;18.86;91.96
67054;SHT31;53960;51.826;5.850;2022-08-01T03:24:26;18.86;92.33
67054;SHT31;53960;51.826;5.850;2022-08-01T03:26:53;18.82;92.11
67054;SHT31;53960;51.826;5.850;2022-08-01T03:29:22;18.76;92.45
67054;SHT31;53960;51.826;5.850;2022-08-01T03:31:49;18.73;92.47
67054;SHT31;53960;51.826;5.850;2022-08-01T03:34:15;18.70;92.53
67054;SHT31;53960;51.826;5.850;2022-08-01T03:36:56;18.67;92.35
67054;SHT31;53960;51.826;5.850;2022-08-01T03:39:28;18.67;92.45
67054;SHT31;53960;51.826;5.850;2022-08-01T03:41:59;18.67;92.52
67054;SHT31;53960;51.826;5.850;2022-08-01T03:44:27;18.69;92.41
67054;SHT31;53960;51.826;5.850;2022-08-01T03:47:05;18.67;92.53
67054;SHT31;53960;51.826;5.850;2022-08-01T03:49:33;18.72;92.39
67054;SHT31;53960;51.826;5.850;2022-08-01T03:52:02;18.74;92.38
67054;SHT31;53960;51.826;5.850;2022-08-01T03:54:32;18.77;92.40
67054;SHT31;53960;51.826;5.850;2022-08-01T03:56:59;18.74;92.56
67054;SHT31;53960;51.826;5.850;2022-08-01T03:59:26;18.67;92.50
67054;SHT31;53960;51.826;5.850;2022-08-01T04:01:52;18.63;92.74
67054;SHT31;53960;51.826;5.850;2022-08-01T04:04:18;18.66;92.60
67054;SHT31;53960;51.826;5.850;2022-08-01T04:06:43;18.70;92.34
67054;SHT31;53960;51.826;5.850;2022-08-01T04:09:10;18.63;92.60
67054;SHT31;53960;51.826;5.850;2022-08-01T04:11:37;18.66;92.48
67054;SHT31;53960;51.826;5.850;2022-08-01T04:14:03;18.67;92.76
67054;SHT31;53960;51.826;5.850;2022-08-01T04:16:28;18.69;92.40
67054;SHT31;53960;51.826;5.850;2022-08-01T04:18:54;18.67;92.48
67054;SHT31;53960;51.826;5.850;2022-08-01T04:21:23;18.64;92.38
67054;SHT31;53960;51.826;5.850;2022-08-01T04:23:50;18.63;92.42
67054;SHT31;53960;51.826;5.850;2022-08-01T04:26:19;18.60;92.40
67054;SHT31;53960;51.826;5.850;2022-08-01T04:28:48;18.60;92.43
67054;SHT31;53960;51.826;5.850;2022-08-01T04:31:16;18.64;92.52
67054;SHT31;53960;51.826;5.850;2022-08-01T04:33:45;18.67;92.68
67054;SHT31;53960;51.826;5.850;2022-08-01T04:36:14;18.69;92.45
67054;SHT31;53960;51.826;5.850;2022-08-01T04:38:40;18.67;92.42
67054;SHT31;53960;51.826;5.850;2022-08-01T04:41:09;18.69;92.60
67054;SHT31;53960;51.826;5.850;2022-08-01T04:43:37;18.70;92.50
67054;SHT31;53960;51.826;5.850;2022-08-01T04:46:02;18.72;92.59
67054;SHT31;53960;51.826;5.850;2022-08-01T04:48:29;18.72;92.58
67054;SHT31;53960;51.826;5.850;2022-08-01T04:50:56;18.74;92.49
67054;SHT31;53960;51.826;5.850;2022-08-01T04:53:21;18.79;92.31
67054;SHT31;53960;51.826;5.850;2022-08-01T04:55:47;18.76;92.28
67054;SHT31;53960;51.826;5.850;2022-08-01T04:58:14;18.73;92.69
67054;SHT31;53960;51.826;5.850;2022-08-01T05:00:39;18.67;92.73
67054;SHT31;53960;51.826;5.850;2022-08-01T05:03:05;18.77;91.77
67054;SHT31;53960;51.826;5.850;2022-08-01T05:05:30;18.63;92.60
67054;SHT31;53960;51.826;5.850;2022-08-01T05:07:56;18.60;92.44
67054;SHT31;53960;51.826;5.850;2022-08-01T05:10:22;18.63;92.43
67054;SHT31;53960;51.826;5.850;2022-08-01T05:12:47;18.60;92.71
67054;SHT31;53960;51.826;5.850;2022-08-01T05:15:12;18.63;92.49
67054;SHT31;53960;51.826;5.850;2022-08-01T05:17:38;18.67;92.19
67054;SHT31;53960;51.826;5.850;2022-08-01T05:20:03;18.73;92.36
67054;SHT31;53960;51.826;5.850;2022-08-01T05:22:31;18.74;92.28
67054;SHT31;53960;51.826;5.850;2022-08-01T05:24:56;18.74;92.36
67054;SHT31;53960;51.826;5.850;2022-08-01T05:27:22;18.77;92.04
67054;SHT31;53960;51.826;5.850;2022-08-01T05:29:47;18.83;92.14
67054;SHT31;53960;51.826;5.850;2022-08-01T05:32:12;18.82;91.77
67054;SHT31;53960;51.826;5.850;2022-08-01T05:34:38;18.83;91.95
67054;SHT31;53960;51.826;5.850;2022-08-01T05:37:03;18.89;91.79
67054;SHT31;53960;51.826;5.850;2022-08-01T05:39:28;18.91;91.74
67054;SHT31;53960;51.826;5.850;2022-08-01T05:41:54;18.90;91.59
67054;SHT31;53960;51.826;5.850;2022-08-01T05:44:19;19.04;90.85
67054;SHT31;53960;51.826;5.850;2022-08-01T05:46:44;19.06;90.98
67054;SHT31;53960;51.826;5.850;2022-08-01T05:49:10;19.14;90.82
67054;SHT31;53960;51.826;5.850;2022-08-01T05:51:35;19.15;90.71
67054;SHT31;53960;51.826;5.850;2022-08-01T05:54:00;19.12;90.65
67054;SHT31;53960;51.826;5.850;2022-08-01T05:56:26;19.07;90.32
67054;SHT31;53960;51.826;5.850;2022-08-01T05:58:51;19.15;90.20
67054;SHT31;53960;51.826;5.850;2022-08-01T06:01:18;19.22;89.50
67054;SHT31;53960;51.826;5.850;2022-08-01T06:03:43;19.21;88.62
67054;SHT31;53960;51.826;5.850;2022-08-01T06:06:09;19.28;88.63
67054;SHT31;53960;51.826;5.850;2022-08-01T06:08:34;19.30;89.21
67054;SHT31;53960;51.826;5.850;2022-08-01T06:11:00;19.32;89.08
67054;SHT31;53960;51.826;5.850;2022-08-01T06:13:25;19.39;88.63
67054;SHT31;53960;51.826;5.850;2022-08-01T06:15:50;19.49;88.05
67054;SHT31;53960;51.826;5.850;2022-08-01T06:18:16;19.59;88.26
67054;SHT31;53960;51.826;5.850;2022-08-01T06:20:42;19.63;88.05
67054;SHT31;53960;51.826;5.850;2022-08-01T06:23:07;19.61;87.63
67054;SHT31;53960;51.826;5.850;2022-08-01T06:25:33;19.65;87.22
67054;SHT31;53960;51.826;5.850;2022-08-01T06:27:59;19.68;87.13
67054;SHT31;53960;51.826;5.850;2022-08-01T06:30:24;19.73;86.70
67054;SHT31;53960;51.826;5.850;2022-08-01T06:32:49;19.79;86.66
67054;SHT31;53960;51.826;5.850;2022-08-01T06:35:15;19.72;86.84
67054;SHT31;53960;51.826;5.850;2022-08-01T06:37:41;19.80;87.26
67054;SHT31;53960;51.826;5.850;2022-08-01T06:40:09;19.75;86.50
67054;SHT31;53960;51.826;5.850;2022-08-01T06:42:35;19.89;86.01
67054;SHT31;53960;51.826;5.850;2022-08-01T06:45:11;19.99;85.79
67054;SHT31;53960;51.826;5.850;2022-08-01T06:47:38;19.89;85.98
67054;SHT31;53960;51.826;5.850;2022-08-01T06:50:04;19.96;85.63
67054;SHT31;53960;51.826;5.850;2022-08-01T06:52:30;20.01;85.10
67054;SHT31;53960;51.826;5.850;2022-08-01T06:54:56;20.14;84.46
67054;SHT31;53960;51.826;5.850;2022-08-01T06:57:21;20.06;85.33
67054;SHT31;53960;51.826;5.850;2022-08-01T06:59:47;20.03;85.14
67054;SHT31;53960;51.826;5.850;2022-08-01T07:02:12;19.97;85.72
67054;SHT31;53960;51.826;5.850;2022-08-01T07:04:37;19.87;86.18
67054;SHT31;53960;51.826;5.850;2022-08-01T07:07:03;19.96;85.67
67054;SHT31;53960;51.826;5.850;2022-08-01T07:09:28;20.00;84.58
67054;SHT31;53960;51.826;5.850;2022-08-01T07:11:54;19.94;84.89
67054;SHT31;53960;51.826;5.850;2022-08-01T07:14:20;19.83;85.10
67054;SHT31;53960;51.826;5.850;2022-08-01T07:16:46;19.79;85.83
67054;SHT31;53960;51.826;5.850;2022-08-01T07:19:11;19.83;86.01
67054;SHT31;53960;51.826;5.850;2022-08-01T07:21:37;19.97;85.22
67054;SHT31;53960;51.826;5.850;2022-08-01T07:24:03;20.03;84.73
67054;SHT31;53960;51.826;5.850;2022-08-01T07:26:29;20.12;84.04
67054;SHT31;53960;51.826;5.850;2022-08-01T07:28:54;20.05;84.00
67054;SHT31;53960;51.826;5.850;2022-08-01T07:31:20;20.08;84.57
67054;SHT31;53960;51.826;5.850;2022-08-01T07:33:45;20.16;84.44
67054;SHT31;53960;51.826;5.850;2022-08-01T07:36:11;20.27;83.59
67054;SHT31;53960;51.826;5.850;2022-08-01T07:38:36;20.21;84.23
67054;SHT31;53960;51.826;5.850;2022-08-01T07:41:02;20.29;82.94
67054;SHT31;53960;51.826;5.850;2022-08-01T07:43:27;20.27;83.42
67054;SHT31;53960;51.826;5.850;2022-08-01T07:45:53;20.23;82.17
67054;SHT31;53960;51.826;5.850;2022-08-01T07:48:18;20.23;82.62
67054;SHT31;53960;51.826;5.850;2022-08-01T07:50:45;20.05;83.68
67054;SHT31;53960;51.826;5.850;2022-08-01T07:53:11;20.09;83.58
67054;SHT31;53960;51.826;5.850;2022-08-01T07:55:36;20.29;83.33
67054;SHT31;53960;51.826;5.850;2022-08-01T07:58:01;20.34;82.72
67054;SHT31;53960;51.826;5.850;2022-08-01T08:00:26;20.43;83.06
67054;SHT31;53960;51.826;5.850;2022-08-01T08:02:53;20.48;81.51
67054;SHT31;53960;51.826;5.850;2022-08-01T08:05:19;20.50;82.71
67054;SHT31;53960;51.826;5.850;2022-08-01T08:07:45;20.37;80.81
67054;SHT31;53960;51.826;5.850;2022-08-01T08:10:10;20.43;80.50
67054;SHT31;53960;51.826;5.850;2022-08-01T08:12:35;20.51;80.06
67054;SHT31;53960;51.826;5.850;2022-08-01T08:15:01;20.41;79.72
67054;SHT31;53960;51.826;5.850;2022-08-01T08:17:30;20.41;79.55
67054;SHT31;53960;51.826;5.850;2022-08-01T08:19:57;20.31;79.22
67054;SHT31;53960;51.826;5.850;2022-08-01T08:22:22;20.29;79.72
67054;SHT31;53960;51.826;5.850;2022-08-01T08:24:47;20.30;80.25
67054;SHT31;53960;51.826;5.850;2022-08-01T08:27:13;20.19;81.26
67054;SHT31;53960;51.826;5.850;2022-08-01T08:29:39;20.19;81.48
67054;SHT31;53960;51.826;5.850;2022-08-01T08:32:04;20.27;81.53
67054;SHT31;53960;51.826;5.850;2022-08-01T08:34:30;20.30;82.10
67054;SHT31;53960;51.826;5.850;2022-08-01T08:36:56;20.39;81.92
67054;SHT31;53960;51.826;5.850;2022-08-01T08:39:22;20.37;82.56
67054;SHT31;53960;51.826;5.850;2022-08-01T08:41:48;20.13;84.46
67054;SHT31;53960;51.826;5.850;2022-08-01T08:44:13;20.12;84.94
67054;SHT31;53960;51.826;5.850;2022-08-01T08:46:45;20.23;85.01
67054;SHT31;53960;51.826;5.850;2022-08-01T08:49:13;20.27;84.70
67054;SHT31;53960;51.826;5.850;2022-08-01T08:51:42;20.40;84.07
67054;SHT31;53960;51.826;5.850;2022-08-01T08:54:10;20.41;82.28
67054;SHT31;53960;51.826;5.850;2022-08-01T08:56:37;20.48;82.03
67054;SHT31;53960;51.826;5.850;2022-08-01T08:59:03;20.41;82.94
67054;SHT31;53960;51.826;5.850;2022-08-01T09:01:30;20.43;83.06
67054;SHT31;53960;51.826;5.850;2022-08-01T09:03:57;20.50;81.88
67054;SHT31;53960;51.826;5.850;2022-08-01T09:06:23;20.68;81.57
67054;SHT31;53960;51.826;5.850;2022-08-01T09:08:49;20.72;81.02
67054;SHT31;53960;51.826;5.850;2022-08-01T09:11:14;20.77;80.39
67054;SHT31;53960;51.826;5.850;2022-08-01T09:13:40;21.05;80.63
67054;SHT31;53960;51.826;5.850;2022-08-01T09:16:05;21.15;80.29
67054;SHT31;53960;51.826;5.850;2022-08-01T09:18:36;21.18;80.46
67054;SHT31;53960;51.826;5.850;2022-08-01T09:21:16;21.16;78.24
67054;SHT31;53960;51.826;5.850;2022-08-01T09:26:16;21.12;77.17
67054;SHT31;53960;51.826;5.850;2022-08-01T09:28:42;20.98;78.95
67054;SHT31;53960;51.826;5.850;2022-08-01T09:31:13;21.06;79.04
67054;SHT31;53960;51.826;5.850;2022-08-01T09:33:56;21.09;80.52
67054;SHT31;53960;51.826;5.850;2022-08-01T09:36:25;21.18;80.06
67054;SHT31;53960;51.826;5.850;2022-08-01T09:38:52;21.32;78.73
67054;SHT31;53960;51.826;5.850;2022-08-01T09:41:28;21.53;77.61
67054;SHT31;53960;51.826;5.850;2022-08-01T09:43:55;21.60;77.14
67054;SHT31;53960;51.826;5.850;2022-08-01T09:46:20;21.71;77.98
67054;SHT31;53960;51.826;5.850;2022-08-01T09:48:57;21.81;77.84
67054;SHT31;53960;51.826;5.850;2022-08-01T09:51:37;21.91;76.67
67054;SHT31;53960;51.826;5.850;2022-08-01T09:54:04;21.86;76.25
67054;SHT31;53960;51.826;5.850;2022-08-01T09:56:38;21.61;77.02
67054;SHT31;53960;51.826;5.850;2022-08-01T09:59:04;21.29;78.14
67054;SHT31;53960;51.826;5.850;2022-08-01T10:01:45;21.02;79.74
67054;SHT31;53960;51.826;5.850;2022-08-01T10:04:17;20.48;82.27
67054;SHT31;53960;51.826;5.850;2022-08-01T10:06:48;20.26;82.68
67054;SHT31;53960;51.826;5.850;2022-08-01T10:09:30;20.19;82.86
67054;SHT31;53960;51.826;5.850;2022-08-01T10:11:56;20.06;82.78
67054;SHT31;53960;51.826;5.850;2022-08-01T10:14:24;20.08;82.14
67054;SHT31;53960;51.826;5.850;2022-08-01T10:16:51;20.06;81.26
67054;SHT31;53960;51.826;5.850;2022-08-01T10:19:18;20.17;81.22
67054;SHT31;53960;51.826;5.850;2022-08-01T10:21:44;20.23;79.78
67054;SHT31;53960;51.826;5.850;2022-08-01T10:24:15;20.14;80.62
67054;SHT31;53960;51.826;5.850;2022-08-01T10:26:41;20.14;82.26
67054;SHT31;53960;51.826;5.850;2022-08-01T10:29:09;20.12;82.08
67054;SHT31;53960;51.826;5.850;2022-08-01T10:31:37;20.09;82.03
67054;SHT31;53960;51.826;5.850;2022-08-01T10:34:03;20.10;81.23
67054;SHT31;53960;51.826;5.850;2022-08-01T10:36:29;20.13;80.96
67054;SHT31;53960;51.826;5.850;2022-08-01T10:38:55;20.08;81.83
67054;SHT31;53960;51.826;5.850;2022-08-01T10:41:20;19.97;83.30
67054;SHT31;53960;51.826;5.850;2022-08-01T10:43:46;19.92;83.82
67054;SHT31;53960;51.826;5.850;2022-08-01T10:46:12;19.94;83.51
67054;SHT31;53960;51.826;5.850;2022-08-01T10:49:02;19.86;84.15
67054;SHT31;53960;51.826;5.850;2022-08-01T10:51:28;19.76;85.02
67054;SHT31;53960;51.826;5.850;2022-08-01T10:53:54;19.75;85.33
67054;SHT31;53960;51.826;5.850;2022-08-01T10:56:21;19.82;85.49
67054;SHT31;53960;51.826;5.850;2022-08-01T10:58:48;19.72;86.19
67054;SHT31;53960;51.826;5.850;2022-08-01T11:03:42;19.87;85.89
67054;SHT31;53960;51.826;5.850;2022-08-01T11:06:19;19.92;86.14
67054;SHT31;53960;51.826;5.850;2022-08-01T11:08:51;19.94;84.84
67054;SHT31;53960;51.826;5.850;2022-08-01T11:11:17;19.93;84.98
67054;SHT31;53960;51.826;5.850;2022-08-01T11:16:31;20.20;84.22
67054;SHT31;53960;51.826;5.850;2022-08-01T11:18:57;20.31;83.27
67054;SHT31;53960;51.826;5.850;2022-08-01T11:27:29;20.68;80.28
67054;SHT31;53960;51.826;5.850;2022-08-01T11:35:16;21.05;77.71
67054;SHT31;53960;51.826;5.850;2022-08-01T11:37:42;21.05;78.30
67054;SHT31;53960;51.826;5.850;2022-08-01T11:40:27;21.12;77.73
67054;SHT31;53960;51.826;5.850;2022-08-01T11:43:17;21.13;77.64
67054;SHT31;53960;51.826;5.850;2022-08-01T11:45:54;21.19;78.73
67054;SHT31;53960;51.826;5.850;2022-08-01T11:48:24;21.29;77.46
67054;SHT31;53960;51.826;5.850;2022-08-01T11:50:51;21.29;78.01
67054;SHT31;53960;51.826;5.850;2022-08-01T11:53:17;21.26;78.48
67054;SHT31;53960;51.826;5.850;2022-08-01T11:55:50;21.32;77.86
67054;SHT31;53960;51.826;5.850;2022-08-01T11:58:23;21.40;77.71
67054;SHT31;53960;51.826;5.850;2022-08-01T12:00:56;21.49;77.25
67054;SHT31;53960;51.826;5.850;2022-08-01T12:03:30;21.64;78.69
67054;SHT31;53960;51.826;5.850;2022-08-01T12:05:57;21.70;77.14
67054;SHT31;53960;51.826;5.850;2022-08-01T12:08:30;21.64;76.82
67054;SHT31;53960;51.826;5.850;2022-08-01T12:10:58;21.53;77.35
67054;SHT31;53960;51.826;5.850;2022-08-01T12:13:24;21.49;77.20
67054;SHT31;53960;51.826;5.850;2022-08-01T12:15:50;21.35;77.86
67054;SHT31;53960;51.826;5.850;2022-08-01T12:18:16;21.36;77.91
67054;SHT31;53960;51.826;5.850;2022-08-01T12:20:43;21.35;77.47
67054;SHT31;53960;51.826;5.850;2022-08-01T12:23:14;21.28;77.60
67054;SHT31;53960;51.826;5.850;2022-08-01T12:25:40;21.23;78.38
67054;SHT31;53960;51.826;5.850;2022-08-01T12:28:08;21.29;77.18
67054;SHT31;53960;51.826;5.850;2022-08-01T12:30:34;21.35;77.24
67054;SHT31;53960;51.826;5.850;2022-08-01T12:33:01;21.33;76.54
67054;SHT31;53960;51.826;5.850;2022-08-01T12:35:29;21.46;75.75
67054;SHT31;53960;51.826;5.850;2022-08-01T12:38:01;21.49;75.59
67054;SHT31;53960;51.826;5.850;2022-08-01T12:40:33;21.64;74.96
67054;SHT31;53960;51.826;5.850;2022-08-01T12:43:06;21.81;74.58
67054;SHT31;53960;51.826;5.850;2022-08-01T12:45:37;21.91;74.75
67054;SHT31;53960;51.826;5.850;2022-08-01T12:48:09;21.83;74.30
67054;SHT31;53960;51.826;5.850;2022-08-01T12:50:37;21.66;75.32
67054;SHT31;53960;51.826;5.850;2022-08-01T12:53:03;21.80;74.07
67054;SHT31;53960;51.826;5.850;2022-08-01T12:55:29;21.80;73.98
67054;SHT31;53960;51.826;5.850;2022-08-01T12:58:08;21.87;74.31
67054;SHT31;53960;51.826;5.850;2022-08-01T13:00:35;21.84;75.27
67054;SHT31;53960;51.826;5.850;2022-08-01T13:03:05;21.94;75.13
67054;SHT31;53960;51.826;5.850;2022-08-01T13:08:14;22.01;73.14
67054;SHT31;53960;51.826;5.850;2022-08-01T13:10:40;22.15;72.75
67054;SHT31;53960;51.826;5.850;2022-08-01T13:13:07;22.46;71.69
67054;SHT31;53960;51.826;5.850;2022-08-01T13:15:34;22.69;67.95
67054;SHT31;53960;51.826;5.850;2022-08-01T13:18:21;22.69;67.85
67054;SHT31;53960;51.826;5.850;2022-08-01T13:20:47;22.79;67.53
67054;SHT31;53960;51.826;5.850;2022-08-01T13:23:19;22.70;69.50
67054;SHT31;53960;51.826;5.850;2022-08-01T13:25:55;22.82;66.90
67054;SHT31;53960;51.826;5.850;2022-08-01T13:28:26;22.70;67.34
67054;SHT31;53960;51.826;5.850;2022-08-01T13:33:17;22.26;68.62
67054;SHT31;53960;51.826;5.850;2022-08-01T13:35:43;22.09;67.94
67054;SHT31;53960;51.826;5.850;2022-08-01T13:38:08;22.29;69.64
67054;SHT31;53960;51.826;5.850;2022-08-01T13:40:33;22.62;68.08
67054;SHT31;53960;51.826;5.850;2022-08-01T13:42:58;22.90;67.00
67054;SHT31;53960;51.826;5.850;2022-08-01T13:45:24;22.86;67.12
67054;SHT31;53960;51.826;5.850;2022-08-01T13:47:49;22.77;65.74
67054;SHT31;53960;51.826;5.850;2022-08-01T13:50:15;22.65;66.73
67054;SHT31;53960;51.826;5.850;2022-08-01T13:52:40;22.45;67.67
67054;SHT31;53960;51.826;5.850;2022-08-01T13:55:06;22.62;67.53
67054;SHT31;53960;51.826;5.850;2022-08-01T13:57:31;22.63;67.12
67054;SHT31;53960;51.826;5.850;2022-08-01T13:59:56;22.46;67.80
67054;SHT31;53960;51.826;5.850;2022-08-01T14:02:25;22.65;67.20
67054;SHT31;53960;51.826;5.850;2022-08-01T14:04:50;22.59;67.81
67054;SHT31;53960;51.826;5.850;2022-08-01T14:07:16;22.69;67.10
67054;SHT31;53960;51.826;5.850;2022-08-01T14:09:41;22.70;65.10
67054;SHT31;53960;51.826;5.850;2022-08-01T14:12:07;22.69;65.37
67054;SHT31;53960;51.826;5.850;2022-08-01T14:14:32;22.77;64.13
67054;SHT31;53960;51.826;5.850;2022-08-01T14:16:58;22.69;63.79
67054;SHT31;53960;51.826;5.850;2022-08-01T14:19:23;22.67;63.61
67054;SHT31;53960;51.826;5.850;2022-08-01T14:21:48;22.76;63.92
67054;SHT31;53960;51.826;5.850;2022-08-01T14:24:13;22.94;63.02
67054;SHT31;53960;51.826;5.850;2022-08-01T14:26:39;22.90;62.26
67054;SHT31;53960;51.826;5.850;2022-08-01T14:29:04;22.82;62.93
67054;SHT31;53960;51.826;5.850;2022-08-01T14:31:29;22.72;63.56
67054;SHT31;53960;51.826;5.850;2022-08-01T14:33:55;22.72;63.90
67054;SHT31;53960;51.826;5.850;2022-08-01T14:36:20;22.72;62.79
67054;SHT31;53960;51.826;5.850;2022-08-01T14:38:46;22.72;62.59
67054;SHT31;53960;51.826;5.850;2022-08-01T14:41:12;22.80;62.45
67054;SHT31;53960;51.826;5.850;2022-08-01T14:43:38;22.86;62.09
67054;SHT31;53960;51.826;5.850;2022-08-01T14:46:03;23.00;61.52
67054;SHT31;53960;51.826;5.850;2022-08-01T14:48:29;23.18;59.74
67054;SHT31;53960;51.826;5.850;2022-08-01T14:50:54;23.18;59.37
67054;SHT31;53960;51.826;5.850;2022-08-01T14:53:20;23.27;59.70
67054;SHT31;53960;51.826;5.850;2022-08-01T14:55:45;23.28;58.44
67054;SHT31;53960;51.826;5.850;2022-08-01T14:58:11;23.30;58.47
67054;SHT31;53960;51.826;5.850;2022-08-01T15:00:36;23.43;58.31
67054;SHT31;53960;51.826;5.850;2022-08-01T15:03:01;23.58;59.52
67054;SHT31;53960;51.826;5.850;2022-08-01T15:05:27;23.47;58.03
67054;SHT31;53960;51.826;5.850;2022-08-01T15:07:53;23.51;57.29
67054;SHT31;53960;51.826;5.850;2022-08-01T15:10:19;23.50;55.93
67054;SHT31;53960;51.826;5.850;2022-08-01T15:12:44;23.25;57.91
67054;SHT31;53960;51.826;5.850;2022-08-01T15:15:10;23.15;57.47
67054;SHT31;53960;51.826;5.850;2022-08-01T15:17:35;23.11;57.26
67054;SHT31;53960;51.826;5.850;2022-08-01T15:20:05;23.27;58.07
67054;SHT31;53960;51.826;5.850;2022-08-01T15:22:31;23.37;57.19
67054;SHT31;53960;51.826;5.850;2022-08-01T15:24:58;23.45;54.46
67054;SHT31;53960;51.826;5.850;2022-08-01T15:27:24;23.54;55.18
67054;SHT31;53960;51.826;5.850;2022-08-01T15:29:51;23.72;54.03
67054;SHT31;53960;51.826;5.850;2022-08-01T15:32:17;23.83;54.20
67054;SHT31;53960;51.826;5.850;2022-08-01T15:34:43;23.68;54.12
67054;SHT31;53960;51.826;5.850;2022-08-01T15:37:10;23.92;53.41
67054;SHT31;53960;51.826;5.850;2022-08-01T15:39:36;24.12;52.98
67054;SHT31;53960;51.826;5.850;2022-08-01T15:42:07;23.82;51.97
67054;SHT31;53960;51.826;5.850;2022-08-01T15:44:36;23.76;51.84
67054;SHT31;53960;51.826;5.850;2022-08-01T15:47:02;23.75;52.41
67054;SHT31;53960;51.826;5.850;2022-08-01T15:49:27;23.69;51.83
67054;SHT31;53960;51.826;5.850;2022-08-01T15:51:53;23.73;52.23
67054;SHT31;53960;51.826;5.850;2022-08-01T15:54:19;23.85;51.98
67054;SHT31;53960;51.826;5.850;2022-08-01T15:56:45;24.13;51.58
67054;SHT31;53960;51.826;5.850;2022-08-01T15:59:10;24.09;48.83